Time;durP1;ratioP1;P1;durP2;ratioP2;P2;SDS_P1;SDS_P2;PMS_P1;PMS_P2;Temp;Humidity;BMP_temperature;BMP_pressure;BME280_temperature;BME280_humidity;BME280_pressure;Samples;Min_cycle;Max_cycle;Signal;HPM_P1;HPM_P2
2023/10/05 00:00:37;;;;;;;30.48;13.00;;;;;;;17.68;67.28;96066.66;5006039;28;20127;-81
2023/10/05 00:03:05;;;;;;;30.52;11.57;;;;;;;17.28;66.90;96013.72;5018028;28;20033;-81
2023/10/05 00:05:36;;;;;;;20.42;10.55;;;;;;;17.62;67.06;96073.16;5024791;28;20527;-81
2023/10/05 00:08:05;;;;;;;31.88;12.15;;;;;;;17.38;67.30;96034.19;5014052;28;20064;-81
2023/10/05 00:10:33;;;;;;;29.10;11.23;;;;;;;17.58;66.91;96057.94;5034286;28;20057;-81
2023/10/05 00:13:07;;;;;;;27.40;11.50;;;;;;;17.52;67.07;96054.56;5015500;28;20068;-82
2023/10/05 00:15:33;;;;;;;25.48;11.98;;;;;;;17.49;67.58;96063.19;4999720;28;20107;-81
2023/10/05 00:17:58;;;;;;;23.20;12.00;;;;;;;17.52;67.18;96057.25;5029130;28;20037;-80
2023/10/05 00:20:25;;;;;;;19.98;10.68;;;;;;;17.47;67.52;96049.28;5022316;28;20484;-75
2023/10/05 00:22:51;;;;;;;25.20;10.85;;;;;;;17.42;67.71;96068.16;5008934;28;20050;-75
2023/10/05 00:25:17;;;;;;;21.75;11.30;;;;;;;17.13;68.47;96052.28;5021372;28;20047;-75
2023/10/05 00:27:45;;;;;;;24.52;11.48;;;;;;;17.10;68.16;96019.91;5020310;28;20152;-75
2023/10/05 00:30:16;;;;;;;25.77;10.48;;;;;;;17.44;67.85;96065.19;4997915;28;20134;-76
2023/10/05 00:32:46;;;;;;;28.73;10.65;;;;;;;17.47;67.86;96065.38;5014877;28;20042;-75
2023/10/05 00:37:44;;;;;;;20.88;10.52;;;;;;;17.26;68.21;96074.84;5030794;28;20528;-76
2023/10/05 00:40:12;;;;;;;27.55;10.82;;;;;;;17.28;68.10;96064.63;5031804;28;20052;-76
2023/10/05 00:42:38;;;;;;;26.58;10.98;;;;;;;17.10;68.13;96030.63;5014167;28;20057;-76
2023/10/05 00:45:11;;;;;;;31.27;10.77;;;;;;;17.05;67.84;96020.00;5018332;28;20139;-76
2023/10/05 00:47:37;;;;;;;20.77;10.52;;;;;;;16.92;68.41;96019.69;5027391;28;20073;-75
2023/10/05 00:50:04;;;;;;;25.55;10.85;;;;;;;17.02;68.94;96058.88;5004587;28;20527;-76
2023/10/05 00:52:30;;;;;;;24.42;11.13;;;;;;;16.98;68.52;96037.25;5003367;28;20045;-75
2023/10/05 00:54:58;;;;;;;21.52;10.40;;;;;;;17.12;68.52;96036.50;5009092;28;20050;-76
2023/10/05 00:57:24;;;;;;;23.77;11.30;;;;;;;17.27;68.21;96049.63;4987509;28;20081;-76
2023/10/05 01:02:31;;;;;;;22.13;10.18;;;;;;;16.61;69.38;96007.84;5005353;28;20080;-78
2023/10/05 01:05:01;;;;;;;21.55;10.55;;;;;;;16.75;68.92;96007.91;5024484;28;20125;-76
2023/10/05 01:07:43;;;;;;;25.65;11.00;;;;;;;16.89;69.21;96055.09;5012092;28;20044;-75
2023/10/05 01:10:27;;;;;;;25.63;11.25;;;;;;;16.46;68.61;95946.47;5028686;28;20058;-76
2023/10/05 01:12:54;;;;;;;23.52;10.60;;;;;;;16.50;68.08;95934.88;5025445;28;20100;-75
2023/10/05 01:15:30;;;;;;;18.83;9.77;;;;;;;16.91;67.93;95998.53;5014244;28;20099;-76
2023/10/05 01:17:56;;;;;;;20.02;10.18;;;;;;;17.17;68.24;96066.69;5014409;28;20160;-76
2023/10/05 01:22:48;;;;;;;21.58;11.02;;;;;;;17.33;67.91;96051.94;5025132;28;20079;-76
2023/10/05 01:25:14;;;;;;;16.15;10.32;;;;;;;17.00;68.00;96001.34;5017989;28;20053;-76
2023/10/05 01:27:53;;;;;;;20.15;9.80;;;;;;;17.13;67.50;96001.38;5014095;28;20056;-76
2023/10/05 01:30:19;;;;;;;21.38;10.05;;;;;;;17.48;67.47;96042.03;5012543;28;20440;-75
2023/10/05 01:32:46;;;;;;;29.77;10.30;;;;;;;17.31;67.13;96023.84;5013237;28;20049;-76
2023/10/05 01:35:13;;;;;;;23.30;10.05;;;;;;;16.50;67.29;95913.44;5015730;28;20127;-77
2023/10/05 01:37:40;;;;;;;22.13;10.55;;;;;;;17.23;67.21;96003.09;5030253;28;20096;-77
2023/10/05 01:42:47;;;;;;;33.67;10.90;;;;;;;16.85;67.03;95963.00;5024748;28;20037;-77
2023/10/05 01:45:19;;;;;;;28.38;10.77;;;;;;;17.17;67.58;96031.84;5001308;28;20044;-76
2023/10/05 01:47:45;;;;;;;17.92;9.88;;;;;;;17.28;67.15;96027.91;5000202;28;20069;-77
2023/10/05 01:50:22;;;;;;;19.70;10.18;;;;;;;16.98;67.74;96010.47;5006594;28;20045;-77
2023/10/05 01:53:04;;;;;;;15.63;9.40;;;;;;;17.08;67.57;96016.75;5009595;28;20654;-77
2023/10/05 01:55:34;;;;;;;18.67;10.00;;;;;;;17.22;67.40;96049.75;5024164;28;20041;-77
2023/10/05 01:58:00;;;;;;;24.27;10.70;;;;;;;17.22;67.39;96042.50;5014918;28;20163;-77
2023/10/05 02:00:25;;;;;;;33.08;11.57;;;;;;;17.02;67.04;96007.97;5026696;28;20037;-77
2023/10/05 02:02:52;;;;;;;19.42;10.18;;;;;;;17.25;66.95;96043.78;5007354;28;20519;-77
2023/10/05 02:05:21;;;;;;;21.95;9.95;;;;;;;17.29;66.82;96042.91;5001779;28;20037;-78
2023/10/05 02:07:49;;;;;;;21.75;9.85;;;;;;;17.38;66.32;96040.34;5014301;28;20037;-77
2023/10/05 02:10:19;;;;;;;30.65;10.88;;;;;;;17.18;66.63;96032.63;5025073;28;20034;-76
2023/10/05 02:12:48;;;;;;;20.48;10.40;;;;;;;17.11;66.66;96026.88;5025000;28;20117;-77
2023/10/05 02:15:16;;;;;;;22.08;10.90;;;;;;;17.43;65.92;96042.94;5015311;28;20531;-77
2023/10/05 02:17:45;;;;;;;21.42;9.65;;;;;;;17.45;65.64;96056.03;5015281;28;20041;-77
2023/10/05 02:20:25;;;;;;;31.77;10.57;;;;;;;17.01;65.19;95981.50;5032988;28;20064;-77
2023/10/05 02:22:51;;;;;;;23.23;11.10;;;;;;;17.50;65.06;96046.00;5006720;28;20041;-78
2023/10/05 02:25:21;;;;;;;29.17;11.07;;;;;;;17.29;64.25;96009.94;5025272;28;20119;-77
2023/10/05 02:27:47;;;;;;;26.67;11.32;;;;;;;17.63;63.73;96060.56;5032926;28;20533;-77
2023/10/05 02:30:14;;;;;;;24.02;11.07;;;;;;;17.63;63.15;96044.47;5032770;28;20033;-77
2023/10/05 02:32:40;;;;;;;22.83;10.18;;;;;;;17.60;62.62;96037.00;5028302;28;20041;-77
2023/10/05 02:35:29;;;;;;;26.95;11.55;;;;;;;17.07;62.41;95981.09;5010543;28;20037;-77
2023/10/05 02:37:55;;;;;;;29.63;11.52;;;;;;;17.62;61.95;96049.03;5015284;28;20046;-77
2023/10/05 02:40:27;;;;;;;20.95;10.80;;;;;;;17.65;62.01;96050.34;5031923;28;20105;-81
2023/10/05 02:42:54;;;;;;;30.33;11.18;;;;;;;17.41;61.46;96020.16;5013407;28;20048;-80
2023/10/05 02:45:21;;;;;;;27.55;11.73;;;;;;;17.38;61.28;96020.78;5012640;28;20048;-80
2023/10/05 02:47:51;;;;;;;32.35;11.27;;;;;;;17.63;61.96;96060.56;4998358;28;20125;-79
2023/10/05 02:50:18;;;;;;;23.70;11.65;;;;;;;17.07;61.99;95978.44;4994693;28;20401;-79
2023/10/05 02:52:44;;;;;;;33.47;11.20;;;;;;;17.18;62.28;96012.00;5017396;28;20093;-80
2023/10/05 02:55:09;;;;;;;22.35;10.30;;;;;;;17.17;62.03;96007.72;5030967;28;20034;-80
2023/10/05 02:57:39;;;;;;;19.77;10.32;;;;;;;17.25;60.86;96038.41;5031080;28;20033;-80
2023/10/05 03:00:06;;;;;;;26.70;10.65;;;;;;;17.42;60.80;96061.97;5009528;28;20046;-79
2023/10/05 03:02:37;;;;;;;22.10;9.73;;;;;;;17.28;60.69;96048.56;4993250;28;20040;-80
2023/10/05 03:05:06;;;;;;;21.23;11.18;;;;;;;17.20;60.89;96057.28;5009377;28;20045;-80
2023/10/05 03:07:31;;;;;;;31.15;10.82;;;;;;;16.94;60.46;96004.09;5001266;28;20050;-80
2023/10/05 03:09:59;;;;;;;18.67;9.45;;;;;;;16.96;60.77;96012.63;5010519;28;20040;-79
2023/10/05 03:12:25;;;;;;;26.40;11.35;;;;;;;17.18;60.88;96049.50;5012593;28;20569;-79
2023/10/05 03:14:52;;;;;;;18.17;10.25;;;;;;;17.19;61.03;96063.72;5012561;28;20041;-80
2023/10/05 03:17:19;;;;;;;24.48;10.88;;;;;;;17.05;61.27;96038.75;5027867;28;20033;-80
2023/10/05 03:19:45;;;;;;;21.85;10.20;;;;;;;16.81;61.34;96007.53;5012597;28;20136;-79
2023/10/05 03:22:13;;;;;;;17.08;9.32;;;;;;;16.89;61.26;96030.16;5012160;28;20481;-79
2023/10/05 03:24:49;;;;;;;20.10;10.48;;;;;;;17.03;61.45;96049.75;5012784;28;20508;-79
2023/10/05 03:27:16;;;;;;;21.95;10.40;;;;;;;16.77;61.50;95993.13;4993673;28;20041;-79
2023/10/05 03:29:45;;;;;;;20.13;10.52;;;;;;;17.05;61.88;96041.44;5006525;28;20413;-80
2023/10/05 03:34:42;;;;;;;33.50;12.60;;;;;;;17.14;62.07;96064.59;5030182;28;20029;-80
2023/10/05 03:37:12;;;;;;;;;;;;;;;17.03;62.37;96065.84;5012898;28;20136;-80
2023/10/05 03:40:08;;;;;;;21.60;11.00;;;;;;;16.90;62.89;96055.88;5009676;28;19913;-79
2023/10/05 03:42:23;;;;;;;23.85;10.88;;;;;;;16.81;63.38;96077.16;5025528;28;20463;-79
2023/10/05 03:45:03;;;;;;;23.67;11.13;;;;;;;16.60;63.79;96035.69;5026418;28;20034;-79
2023/10/05 03:47:29;;;;;;;21.45;10.63;;;;;;;16.87;63.67;96072.53;5029146;28;20037;-79
2023/10/05 03:49:55;;;;;;;21.50;10.93;;;;;;;16.89;63.62;96070.34;4997680;28;20043;-80
2023/10/05 03:52:21;;;;;;;22.50;10.55;;;;;;;16.70;63.52;96045.47;5010581;28;20129;-76
2023/10/05 03:54:47;;;;;;;32.80;14.18;;;;;;;16.48;63.88;96025.38;5011566;28;20061;-76
2023/10/05 03:57:12;;;;;;;38.13;12.60;;;;;;;16.21;63.85;95977.88;5007980;28;20825;-76
2023/10/05 03:59:39;;;;;;;37.80;13.88;;;;;;;16.55;64.40;96054.50;5003437;28;20053;-76
2023/10/05 04:02:09;;;;;;;26.88;12.02;;;;;;;16.31;64.76;96002.91;4998522;28;20448;-77
2023/10/05 04:04:36;;;;;;;39.97;13.18;;;;;;;16.23;65.46;96008.91;4999901;28;20044;-76
2023/10/05 04:07:03;;;;;;;29.67;12.30;;;;;;;16.16;66.38;96049.41;5013135;28;20124;-75
2023/10/05 04:09:33;;;;;;;31.40;12.63;;;;;;;16.11;66.61;96044.09;5003185;28;20037;-75
2023/10/05 04:12:00;;;;;;;25.98;13.27;;;;;;;16.43;66.31;96078.22;5015718;28;20037;-75
2023/10/05 04:14:26;;;;;;;28.30;11.85;;;;;;;16.50;65.97;96071.41;5006871;28;20052;-76
2023/10/05 04:17:07;;;;;;;27.25;11.85;;;;;;;16.56;66.11;96089.00;5003485;28;20121;-77
2023/10/05 04:19:34;;;;;;;29.40;12.88;;;;;;;16.63;65.97;96094.03;5002604;28;20416;-78
2023/10/05 04:21:59;;;;;;;31.83;13.77;;;;;;;16.65;65.75;96091.88;5015404;28;20054;-78
2023/10/05 04:24:26;;;;;;;30.42;13.00;;;;;;;16.31;65.99;96043.84;4999888;28;20091;-76
2023/10/05 04:26:53;;;;;;;26.50;12.95;;;;;;;16.66;65.79;96087.31;5017435;28;20795;-78
2023/10/05 04:29:22;;;;;;;34.70;12.93;;;;;;;16.67;65.87;96086.22;5000145;28;20053;-76
2023/10/05 04:31:48;;;;;;;33.17;14.90;;;;;;;16.58;65.49;96067.31;4975917;28;20099;-77
2023/10/05 04:34:18;;;;;;;28.48;14.20;;;;;;;16.48;65.85;96054.03;4975353;28;20140;-78
2023/10/05 04:36:48;;;;;;;39.35;16.05;;;;;;;16.59;65.81;96076.94;4981229;28;20510;-76
2023/10/05 04:39:21;;;;;;;34.75;14.50;;;;;;;16.60;65.90;96075.84;4971098;28;20128;-76
2023/10/05 04:41:49;;;;;;;26.80;13.65;;;;;;;16.47;65.24;96058.63;4987247;28;20052;-76
2023/10/05 04:44:18;;;;;;;35.63;12.60;;;;;;;16.20;66.28;96053.88;4996769;28;20521;-77
2023/10/05 04:46:47;;;;;;;28.58;12.65;;;;;;;16.58;66.20;96104.78;4990553;28;20147;-76
2023/10/05 04:49:17;;;;;;;27.25;13.65;;;;;;;16.35;66.07;96073.50;5002027;28;20073;-74
2023/10/05 04:51:44;;;;;;;36.55;13.52;;;;;;;16.47;65.78;96098.78;5000148;28;20049;-76
2023/10/05 04:54:11;;;;;;;29.98;13.18;;;;;;;16.49;65.68;96101.97;5005450;28;20041;-76
2023/10/05 04:56:43;;;;;;;37.95;14.77;;;;;;;15.92;65.75;96005.84;4994727;28;20099;-76
2023/10/05 05:07:06;;;;;;;33.30;13.23;;;;;;;16.34;65.25;96078.06;4996481;28;20112;-78
2023/10/05 05:09:38;;;;;;;32.50;14.13;;;;;;;16.61;65.04;96108.81;4979339;28;20495;-78
2023/10/05 05:12:04;;;;;;;;;;;;;;;16.70;65.28;96125.84;4966628;28;20050;-79
2023/10/05 05:14:37;;;;;;;34.17;11.52;;;;;;;15.88;64.58;96027.00;5005028;28;20392;-79
2023/10/05 05:17:05;;;;;;;29.95;12.90;;;;;;;16.33;64.47;96081.03;5010330;28;20053;-82
2023/10/05 05:19:36;;;;;;;36.75;12.23;;;;;;;16.35;64.53;96074.31;5005111;28;20053;-78
2023/10/05 05:22:05;;;;;;;34.60;13.90;;;;;;;16.55;64.60;96116.09;4977105;28;20983;-78
2023/10/05 05:24:36;;;;;;;27.27;11.20;;;;;;;16.56;64.07;96134.53;4985971;28;20140;-77
2023/10/05 05:27:11;;;;;;;33.88;12.25;;;;;;;16.57;64.46;96129.97;5001139;28;20045;-75
2023/10/05 05:29:37;;;;;;;34.25;12.75;;;;;;;16.25;64.45;96093.16;4989686;28;20054;-78
2023/10/05 05:32:12;;;;;;;40.63;11.73;;;;;;;16.56;64.20;96118.47;5010476;28;20104;-78
2023/10/05 05:34:41;;;;;;;38.97;11.80;;;;;;;16.37;64.35;96116.84;5000957;28;20045;-78
2023/10/05 05:37:08;;;;;;;34.85;12.20;;;;;;;16.64;64.15;96146.50;5012533;28;20428;-79
2023/10/05 05:39:43;;;;;;;35.72;12.70;;;;;;;16.75;63.57;96145.31;4994087;28;20136;-78
2023/10/05 05:42:18;;;;;;;27.25;12.00;;;;;;;16.07;63.57;96048.44;4982409;28;20077;-78
2023/10/05 05:44:44;;;;;;;34.58;12.32;;;;;;;16.67;63.03;96118.38;4992014;28;20064;-77
2023/10/05 05:47:10;;;;;;;27.90;11.90;;;;;;;16.73;62.75;96149.34;5000236;28;20045;-79
2023/10/05 05:49:45;;;;;;;31.05;11.68;;;;;;;16.82;62.73;96148.41;4983339;28;20041;-77
2023/10/05 05:52:12;;;;;;;32.10;11.30;;;;;;;16.76;62.37;96138.88;4984328;28;20445;-79
2023/10/05 05:54:38;;;;;;;29.55;11.57;;;;;;;16.46;62.12;96101.75;5010351;28;20240;-79
2023/10/05 05:57:08;;;;;;;26.38;10.77;;;;;;;16.96;61.66;96151.97;4981738;28;20081;-79
2023/10/05 05:59:39;;;;;;;42.15;11.35;;;;;;;16.23;61.56;96051.72;4995515;28;20052;-79
2023/10/05 06:02:09;;;;;;;31.95;10.63;;;;;;;16.62;61.65;96115.75;4990844;28;20440;-79
2023/10/05 06:04:35;;;;;;;37.20;9.52;;;;;;;16.96;61.19;96164.56;5008540;28;20121;-78
2023/10/05 06:07:02;;;;;;;28.98;10.57;;;;;;;16.46;61.20;96107.91;4999368;28;20045;-78
2023/10/05 06:09:33;;;;;;;33.75;11.23;;;;;;;16.56;61.25;96126.50;5021430;28;20118;-78
2023/10/05 06:12:02;;;;;;;30.77;10.45;;;;;;;16.77;61.12;96145.81;4999933;28;20056;-78
2023/10/05 06:14:28;;;;;;;30.40;11.20;;;;;;;16.79;61.38;96169.63;4986795;28;20586;-78
2023/10/05 06:16:54;;;;;;;38.05;10.18;;;;;;;16.78;61.22;96160.00;5012980;28;20077;-78
2023/10/05 06:19:21;;;;;;;34.38;9.60;;;;;;;16.46;60.80;96107.09;5005146;28;20049;-78
2023/10/05 06:21:47;;;;;;;19.45;8.57;;;;;;;16.50;60.71;96140.25;4991320;28;20046;-78
2023/10/05 06:24:12;;;;;;;34.83;9.45;;;;;;;16.66;60.91;96173.00;5009311;28;20042;-78
2023/10/05 06:26:38;;;;;;;30.17;9.90;;;;;;;16.69;60.86;96169.78;4999370;28;20500;-78
2023/10/05 06:29:08;;;;;;;30.33;9.80;;;;;;;16.12;60.84;96092.00;4992035;28;20168;-78
2023/10/05 06:31:36;;;;;;;33.88;7.82;;;;;;;16.11;61.07;96121.69;5004481;28;20060;-78
2023/10/05 06:34:07;;;;;;;24.65;8.82;;;;;;;16.11;61.08;96106.44;4996733;28;20186;-79
2023/10/05 06:36:33;;;;;;;;;;;;;;;16.69;60.96;96170.56;5011205;28;20061;-78
2023/10/05 06:38:58;;;;;;;29.50;9.25;;;;;;;16.64;60.35;96137.69;5002237;28;20617;-78
2023/10/05 06:41:24;;;;;;;30.90;9.15;;;;;;;16.53;59.91;96119.06;4961931;28;20609;-78
2023/10/05 06:43:49;;;;;;;26.45;8.57;;;;;;;16.53;59.45;96105.66;5010530;28;20478;-78
2023/10/05 06:46:17;;;;;;;21.45;8.73;;;;;;;16.79;59.61;96157.03;5000163;28;20180;-78
2023/10/05 06:48:50;;;;;;;17.98;8.27;;;;;;;16.77;59.21;96155.75;4997114;28;20080;-78
2023/10/05 06:51:22;;;;;;;24.45;7.90;;;;;;;17.01;58.93;96175.22;4997245;28;20538;-78
2023/10/05 06:53:48;;;;;;;24.35;7.57;;;;;;;16.65;58.89;96115.16;4970299;28;20060;-78
2023/10/05 06:56:13;;;;;;;19.60;7.53;;;;;;;17.09;58.32;96176.47;4989985;28;20346;-78
2023/10/05 06:58:41;;;;;;;20.85;6.90;;;;;;;17.02;58.85;96154.56;4995364;28;20046;-78
2023/10/05 07:01:07;;;;;;;19.83;9.15;;;;;;;17.03;58.78;96156.97;4998609;28;20037;-78
2023/10/05 07:03:32;;;;;;;20.30;8.18;;;;;;;16.85;59.02;96130.97;4993421;28;20045;-78
2023/10/05 07:05:59;;;;;;;22.40;7.75;;;;;;;16.96;58.76;96133.22;5003279;28;20230;-78
2023/10/05 07:08:25;;;;;;;24.92;8.40;;;;;;;17.17;58.48;96155.13;4993535;28;20882;-78
2023/10/05 07:10:54;;;;;;;18.40;6.35;;;;;;;16.86;58.16;96122.63;5009050;28;20036;-79
2023/10/05 07:13:22;;;;;;;22.33;7.55;;;;;;;17.14;58.54;96176.38;4982016;28;20052;-79
2023/10/05 07:15:48;;;;;;;28.50;7.50;;;;;;;17.14;58.15;96174.50;4986822;28;20049;-78
2023/10/05 07:18:15;;;;;;;20.67;6.15;;;;;;;16.93;57.84;96182.03;4995710;28;20041;-78
2023/10/05 07:20:41;;;;;;;29.40;5.88;;;;;;;16.66;57.63;96098.81;5002030;28;20046;-78
2023/10/05 07:23:07;;;;;;;21.80;6.80;;;;;;;16.68;57.54;96088.63;4995371;28;20041;-79
2023/10/05 07:25:33;;;;;;;20.52;6.70;;;;;;;16.87;57.21;96110.03;4998465;28;20580;-79
2023/10/05 07:27:59;;;;;;;15.25;6.10;;;;;;;17.03;57.02;96142.75;4989509;28;21209;-78
2023/10/05 07:30:25;;;;;;;12.52;5.90;;;;;;;17.09;56.83;96150.44;4994161;28;20576;-79
2023/10/05 07:32:51;;;;;;;23.27;6.07;;;;;;;16.65;56.97;96083.84;4998683;28;20054;-78
2023/10/05 07:35:17;;;;;;;14.77;6.38;;;;;;;16.75;56.79;96086.38;4992818;28;20543;-78
2023/10/05 07:37:42;;;;;;;17.27;6.25;;;;;;;16.78;56.61;96085.00;5008468;28;20103;-79
2023/10/05 07:40:08;;;;;;;10.60;5.55;;;;;;;17.40;56.78;96177.56;5010022;28;20041;-79
2023/10/05 07:42:34;;;;;;;17.40;6.10;;;;;;;17.51;56.26;96170.19;4999360;28;20125;-78
2023/10/05 07:45:00;;;;;;;19.85;6.20;;;;;;;17.33;56.30;96137.72;5005979;28;20128;-79
2023/10/05 07:47:25;;;;;;;24.92;5.03;;;;;;;17.40;56.30;96145.41;5009891;28;20098;-78
2023/10/05 07:49:55;;;;;;;17.35;5.60;;;;;;;17.70;56.00;96176.31;4997266;28;20547;-79
2023/10/05 07:52:21;;;;;;;17.63;5.90;;;;;;;17.31;55.80;96112.31;4993454;28;20112;-78
2023/10/05 07:54:47;;;;;;;28.67;6.40;;;;;;;17.41;56.02;96148.88;5009598;28;20053;-79
2023/10/05 07:57:14;;;;;;;13.20;5.90;;;;;;;17.57;56.36;96177.03;5006438;28;20045;-79
2023/10/05 07:59:41;;;;;;;18.25;6.43;;;;;;;17.45;56.39;96139.97;4999354;28;20103;-78
2023/10/05 08:02:08;;;;;;;22.67;6.40;;;;;;;17.43;56.07;96112.66;4967233;28;20045;-79
2023/10/05 08:04:35;;;;;;;18.42;6.32;;;;;;;17.59;55.76;96132.75;4993434;28;20107;-79
2023/10/05 08:07:01;;;;;;;22.75;6.50;;;;;;;17.62;55.89;96124.13;4988368;28;20076;-78
2023/10/05 08:09:27;;;;;;;29.63;7.30;;;;;;;17.78;55.76;96129.22;4978296;28;20200;-78
2023/10/05 08:11:57;;;;;;;19.65;6.60;;;;;;;17.69;55.68;96115.72;5009879;28;20089;-78
2023/10/05 08:14:26;;;;;;;22.17;6.20;;;;;;;17.96;55.55;96133.75;5010431;28;20411;-79
2023/10/05 08:16:55;;;;;;;27.00;7.20;;;;;;;17.83;55.50;96113.84;5007451;28;20061;-78
2023/10/05 08:19:24;;;;;;;17.17;6.60;;;;;;;18.11;55.55;96150.34;4978873;28;20128;-78
2023/10/05 08:21:53;;;;;;;16.98;6.80;;;;;;;18.18;55.43;96141.91;4966622;28;20517;-78
2023/10/05 08:24:20;;;;;;;15.45;6.55;;;;;;;17.84;55.45;96094.00;4978189;28;20058;-78
2023/10/05 08:26:49;;;;;;;16.38;7.38;;;;;;;18.22;55.14;96120.63;4972043;28;20521;-78
2023/10/05 08:29:18;;;;;;;13.15;7.38;;;;;;;18.17;55.25;96116.16;4970974;28;20429;-79
2023/10/05 08:31:44;;;;;;;10.30;5.55;;;;;;;18.09;55.38;96081.94;4974315;28;20051;-79
2023/10/05 08:34:14;;;;;;;16.55;7.00;;;;;;;18.45;55.29;96122.31;4977537;28;20041;-79
2023/10/05 08:36:41;;;;;;;21.58;7.47;;;;;;;17.85;54.89;96033.06;4977388;28;20047;-79
2023/10/05 08:39:08;;;;;;;22.65;7.43;;;;;;;18.51;54.85;96138.03;4995920;28;20103;-79
2023/10/05 08:41:35;;;;;;;21.15;7.18;;;;;;;17.79;55.18;96018.13;4974304;28;20113;-78
2023/10/05 08:44:06;;;;;;;21.38;7.93;;;;;;;18.34;55.41;96100.25;4990182;28;20144;-78
2023/10/05 08:46:57;;;;;;;21.92;8.30;;;;;;;17.97;55.49;96060.19;4977585;28;20042;-79
2023/10/05 08:49:24;;;;;;;18.05;7.28;;;;;;;18.30;55.19;96111.88;4975123;28;20065;-79
2023/10/05 08:51:51;;;;;;;16.23;7.30;;;;;;;18.23;54.83;96098.88;4975440;28;20061;-79
2023/10/05 08:54:21;;;;;;;27.85;7.85;;;;;;;18.50;55.12;96122.19;4975004;28;20119;-79
2023/10/05 08:56:47;;;;;;;17.23;8.32;;;;;;;18.63;54.91;96120.63;4972737;28;20157;-79
2023/10/05 08:59:14;;;;;;;15.80;7.72;;;;;;;18.83;54.82;96125.56;4974642;28;20125;-79
2023/10/05 09:01:45;;;;;;;19.13;8.02;;;;;;;18.98;54.29;96124.44;4973619;28;20065;-79
2023/10/05 09:06:47;;;;;;;23.50;7.63;;;;;;;18.82;54.30;96105.16;4973068;28;20158;-79
2023/10/05 09:09:14;;;;;;;20.80;7.20;;;;;;;18.97;54.39;96123.63;4978023;28;20816;-79
2023/10/05 09:11:40;;;;;;;19.88;8.43;;;;;;;19.00;54.35;96122.22;4979999;28;20128;-79
2023/10/05 09:14:41;;;;;;;24.55;8.70;;;;;;;19.13;54.51;96116.00;4988299;28;20097;-79
2023/10/05 09:17:09;;;;;;;26.10;7.72;;;;;;;19.14;54.06;96104.16;4972143;28;20062;-79
2023/10/05 09:19:35;;;;;;;28.73;8.77;;;;;;;19.21;54.09;96116.09;4963336;28;20162;-79
2023/10/05 09:24:26;;;;;;;22.08;7.60;;;;;;;19.24;53.87;96104.69;4973321;28;20050;-79
2023/10/05 09:26:57;;;;;;;26.63;8.63;;;;;;;19.38;54.14;96114.59;4973066;28;20604;-79
2023/10/05 09:29:31;;;;;;;20.98;8.50;;;;;;;19.40;54.17;96097.06;4972423;28;20046;-79
2023/10/05 09:32:00;;;;;;;23.00;8.75;;;;;;;19.53;54.04;96098.13;4969212;28;20723;-79
2023/10/05 09:34:35;;;;;;;23.42;8.48;;;;;;;19.67;54.14;96095.34;4972133;28;20596;-79
2023/10/05 09:37:05;;;;;;;33.13;9.32;;;;;;;19.61;53.78;96083.91;4959570;28;20140;-79
2023/10/05 09:39:42;;;;;;;33.95;9.60;;;;;;;19.46;53.79;96049.28;4968797;28;20054;-81
2023/10/05 09:42:13;;;;;;;22.55;8.60;;;;;;;19.76;53.30;96080.81;4972149;28;20039;-77
2023/10/05 09:44:51;;;;;;;24.00;9.10;;;;;;;19.89;53.07;96081.84;4982256;28;20053;-77
2023/10/05 09:47:32;;;;;;;25.77;8.90;;;;;;;20.07;53.14;96093.44;4967631;28;20073;-76
2023/10/05 09:50:10;;;;;;;;;;;;;;;20.60;52.67;96085.22;4973699;28;20124;-77
2023/10/05 09:52:37;;;;;;;20.48;8.10;;;;;;;21.42;50.49;96073.53;4975806;28;19926;-77
2023/10/05 09:55:12;;;;;;;28.73;8.32;;;;;;;22.04;47.60;96000.91;4977266;28;20572;-77
2023/10/05 09:57:46;;;;;;;22.90;7.80;;;;;;;23.57;45.11;96068.81;4976571;28;20038;-78
2023/10/05 10:02:58;;;;;;;17.42;7.43;;;;;;;25.67;39.99;96061.31;4980221;28;20057;-77
2023/10/05 10:05:30;;;;;;;22.65;8.07;;;;;;;26.47;38.20;96049.31;4964659;28;20532;-78
2023/10/05 10:08:08;;;;;;;25.60;7.97;;;;;;;27.26;36.79;96056.09;4951746;28;20153;-78
2023/10/05 10:10:37;;;;;;;18.13;7.63;;;;;;;27.71;35.42;96060.06;4953657;28;20042;-77
2023/10/05 10:13:13;;;;;;;25.50;7.80;;;;;;;27.98;34.79;96061.72;4975533;28;20054;-78
2023/10/05 10:15:41;;;;;;;20.60;7.93;;;;;;;28.82;34.16;96046.28;4971346;28;20129;-77
2023/10/05 10:18:14;;;;;;;38.90;8.15;;;;;;;29.18;33.81;96031.94;4976573;28;20363;-77
2023/10/05 10:20:49;;;;;;;19.73;7.95;;;;;;;29.34;32.61;96031.72;4994270;28;20081;-79
2023/10/05 10:23:21;;;;;;;16.63;8.05;;;;;;;29.64;32.51;96046.13;4976628;28;20049;-81
2023/10/05 10:25:50;;;;;;;20.95;6.88;;;;;;;29.85;32.46;96035.38;4986785;28;20055;-78
2023/10/05 10:28:39;;;;;;;21.52;7.45;;;;;;;30.08;32.03;96034.44;4966081;28;20157;-79
2023/10/05 10:31:18;;;;;;;24.80;8.45;;;;;;;30.39;31.24;96033.91;4957563;28;20288;-78
2023/10/05 10:33:51;;;;;;;25.15;8.32;;;;;;;30.48;31.17;96022.63;4966071;28;20046;-79
2023/10/05 10:36:52;;;;;;;22.98;7.45;;;;;;;30.58;31.20;96024.69;4955144;28;20070;-79
2023/10/05 10:39:23;;;;;;;;;;;;;;;30.19;30.72;96022.44;4865746;29;20046;-78
2023/10/05 10:42:01;;;;;;;17.25;7.88;;;;;;;30.36;30.60;96012.00;4963762;28;19918;-78
2023/10/05 10:44:27;;;;;;;16.38;7.90;;;;;;;29.48;31.45;95971.78;4963168;28;20034;-79
2023/10/05 10:47:11;;;;;;;22.42;8.10;;;;;;;29.77;31.31;96009.16;4966767;28;20467;-78
2023/10/05 10:49:39;;;;;;;17.52;7.20;;;;;;;29.43;31.74;95981.13;4953673;28;20066;-78
2023/10/05 10:52:09;;;;;;;23.50;7.90;;;;;;;29.11;32.01;95980.75;4970159;28;20049;-79
2023/10/05 10:54:41;;;;;;;15.77;8.00;;;;;;;29.27;32.19;95974.28;4953476;28;20650;-80
2023/10/05 10:57:06;;;;;;;17.50;7.90;;;;;;;29.54;31.97;95978.47;4973040;28;20127;-80
2023/10/05 10:59:41;;;;;;;21.60;8.27;;;;;;;29.20;31.84;95944.94;4953184;28;20728;-79
2023/10/05 11:02:12;;;;;;;19.60;7.88;;;;;;;29.55;31.38;95985.50;4951918;28;20517;-79
2023/10/05 11:04:39;;;;;;;;;;;;;;;29.49;31.43;95976.09;4952282;28;20046;-79
2023/10/05 11:07:10;;;;;;;21.15;7.68;;;;;;;29.79;31.05;95943.16;4957830;28;19929;-79
2023/10/05 11:09:37;;;;;;;;;;;;;;;29.99;30.78;95949.19;4958266;28;20112;-80
2023/10/05 11:12:11;;;;;;;19.92;8.05;;;;;;;30.39;30.34;95953.75;4967812;28;19936;-80
2023/10/05 11:14:38;;;;;;;15.77;7.15;;;;;;;30.58;30.04;95959.78;4948371;28;20474;-79
2023/10/05 11:17:11;;;;;;;16.27;7.10;;;;;;;30.50;29.81;95955.44;4951055;28;20464;-79
2023/10/05 11:19:38;;;;;;;18.13;7.80;;;;;;;30.21;30.23;95946.22;4975125;28;20492;-80
2023/10/05 11:22:11;;;;;;;18.13;7.45;;;;;;;30.28;30.39;95943.56;4978610;28;20613;-79
2023/10/05 11:25:07;;;;;;;19.10;7.18;;;;;;;30.37;30.59;95943.19;4967149;28;20173;-79
2023/10/05 11:27:36;;;;;;;24.80;8.00;;;;;;;30.49;30.59;95931.94;4969481;28;20058;-80
2023/10/05 11:30:02;;;;;;;18.23;8.30;;;;;;;30.48;30.88;95908.47;4999166;28;20176;-79
2023/10/05 11:32:28;;;;;;;20.75;7.18;;;;;;;30.24;29.84;95906.38;4977675;28;20038;-78
2023/10/05 11:34:55;;;;;;;26.08;7.65;;;;;;;30.36;30.93;95922.50;5002506;28;20512;-78
2023/10/05 11:37:23;;;;;;;17.77;8.35;;;;;;;30.23;30.91;95905.59;5008409;28;20068;-78
2023/10/05 11:39:49;;;;;;;15.45;7.28;;;;;;;30.14;30.33;95907.88;5034091;28;20124;-78
2023/10/05 11:42:24;;;;;;;14.50;6.80;;;;;;;30.29;30.87;95925.94;5028655;28;20152;-78
2023/10/05 11:44:59;;;;;;;19.50;7.22;;;;;;;30.38;31.11;95895.50;5030856;28;20042;-78
2023/10/05 11:47:32;;;;;;;16.75;7.97;;;;;;;30.57;30.32;95922.63;5002825;28;20033;-78
2023/10/05 11:50:08;;;;;;;21.27;7.65;;;;;;;30.52;29.94;95895.59;5007672;28;21160;-78
2023/10/05 11:52:38;;;;;;;17.23;7.18;;;;;;;30.02;30.64;95921.09;5018443;28;20030;-78
2023/10/05 11:55:11;;;;;;;15.73;7.30;;;;;;;29.59;31.20;95903.56;4998345;28;20524;-79
2023/10/05 11:57:38;;;;;;;16.73;7.70;;;;;;;29.25;32.02;95924.69;5002693;28;20037;-78
2023/10/05 12:00:05;;;;;;;16.30;7.03;;;;;;;29.32;31.46;95905.63;5021002;28;20140;-78
2023/10/05 12:02:33;;;;;;;18.65;7.68;;;;;;;29.10;31.82;95882.78;4984478;28;20330;-80